sensor_id;sensor_type;location;lat;lon;timestamp;temperature;humidity
3001;DHT22;1510;51.072;6.678;2023-01-15T00:01:30;6.40;99.90
3001;DHT22;1510;51.072;6.678;2023-01-15T00:04:00;6.30;99.90
3001;DHT22;1510;51.072;6.678;2023-01-15T00:06:29;6.20;99.90
3001;DHT22;1510;51.072;6.678;2023-01-15T00:08:57;6.30;99.90
3001;DHT22;1510;51.072;6.678;2023-01-15T00:11:24;6.20;99.90
3001;DHT22;1510;51.072;6.678;2023-01-15T00:13:51;6.20;99.90
3001;DHT22;1510;51.072;6.678;2023-01-15T00:16:19;6.10;99.90
3001;DHT22;1510;51.072;6.678;2023-01-15T00:18:50;6.00;99.90
3001;DHT22;1510;51.072;6.678;2023-01-15T00:21:17;6.00;99.90
3001;DHT22;1510;51.072;6.678;2023-01-15T00:23:44;5.90;99.90
3001;DHT22;1510;51.072;6.678;2023-01-15T00:26:29;6.00;99.90
3001;DHT22;1510;51.072;6.678;2023-01-15T00:29:14;5.90;99.90
3001;DHT22;1510;51.072;6.678;2023-01-15T00:31:42;5.90;99.90
3001;DHT22;1510;51.072;6.678;2023-01-15T00:34:11;5.90;99.90
3001;DHT22;1510;51.072;6.678;2023-01-15T00:36:38;5.90;99.90
3001;DHT22;1510;51.072;6.678;2023-01-15T00:39:06;5.90;99.90
3001;DHT22;1510;51.072;6.678;2023-01-15T00:41:34;5.90;99.90
3001;DHT22;1510;51.072;6.678;2023-01-15T00:44:01;5.90;99.90
3001;DHT22;1510;51.072;6.678;2023-01-15T00:46:28;5.80;99.90
3001;DHT22;1510;51.072;6.678;2023-01-15T00:48:55;5.80;99.90
3001;DHT22;1510;51.072;6.678;2023-01-15T00:51:24;5.80;99.90
3001;DHT22;1510;51.072;6.678;2023-01-15T00:53:50;5.70;99.90
3001;DHT22;1510;51.072;6.678;2023-01-15T00:56:17;5.70;99.90
3001;DHT22;1510;51.072;6.678;2023-01-15T00:58:44;5.70;99.90
3001;DHT22;1510;51.072;6.678;2023-01-15T01:01:12;5.70;99.90
3001;DHT22;1510;51.072;6.678;2023-01-15T01:03:39;5.60;99.90
3001;DHT22;1510;51.072;6.678;2023-01-15T01:06:06;5.50;99.90
3001;DHT22;1510;51.072;6.678;2023-01-15T01:08:34;5.50;99.90
3001;DHT22;1510;51.072;6.678;2023-01-15T01:11:02;5.50;99.90
3001;DHT22;1510;51.072;6.678;2023-01-15T01:13:29;5.50;99.90
3001;DHT22;1510;51.072;6.678;2023-01-15T01:15:57;5.40;99.90
3001;DHT22;1510;51.072;6.678;2023-01-15T01:18:24;5.40;99.90
3001;DHT22;1510;51.072;6.678;2023-01-15T01:20:51;5.40;99.90
3001;DHT22;1510;51.072;6.678;2023-01-15T01:23:17;5.40;99.90
3001;DHT22;1510;51.072;6.678;2023-01-15T01:25:46;5.30;99.90
3001;DHT22;1510;51.072;6.678;2023-01-15T01:28:12;5.30;99.90
3001;DHT22;1510;51.072;6.678;2023-01-15T01:30:39;5.40;99.90
3001;DHT22;1510;51.072;6.678;2023-01-15T01:33:06;5.40;99.90
3001;DHT22;1510;51.072;6.678;2023-01-15T01:35:33;5.40;99.90
3001;DHT22;1510;51.072;6.678;2023-01-15T01:38:00;5.40;99.90
3001;DHT22;1510;51.072;6.678;2023-01-15T01:40:27;5.50;99.90
3001;DHT22;1510;51.072;6.678;2023-01-15T01:42:55;5.50;99.90
3001;DHT22;1510;51.072;6.678;2023-01-15T01:45:24;5.50;99.90
3001;DHT22;1510;51.072;6.678;2023-01-15T01:47:56;5.50;99.90
3001;DHT22;1510;51.072;6.678;2023-01-15T01:50:25;5.50;99.90
3001;DHT22;1510;51.072;6.678;2023-01-15T01:52:56;5.50;99.90
3001;DHT22;1510;51.072;6.678;2023-01-15T01:55:25;5.60;99.90
3001;DHT22;1510;51.072;6.678;2023-01-15T01:57:57;5.60;99.90
3001;DHT22;1510;51.072;6.678;2023-01-15T02:00:25;5.60;99.90
3001;DHT22;1510;51.072;6.678;2023-01-15T02:02:53;5.60;99.90
3001;DHT22;1510;51.072;6.678;2023-01-15T02:05:26;5.60;99.90
3001;DHT22;1510;51.072;6.678;2023-01-15T02:07:54;5.60;99.90
3001;DHT22;1510;51.072;6.678;2023-01-15T02:10:21;5.60;99.90
3001;DHT22;1510;51.072;6.678;2023-01-15T02:12:54;5.60;99.90
3001;DHT22;1510;51.072;6.678;2023-01-15T02:15:27;5.70;99.90
3001;DHT22;1510;51.072;6.678;2023-01-15T02:18:01;5.60;99.90
3001;DHT22;1510;51.072;6.678;2023-01-15T02:20:35;5.60;99.90
3001;DHT22;1510;51.072;6.678;2023-01-15T02:23:19;5.60;99.90
3001;DHT22;1510;51.072;6.678;2023-01-15T02:26:05;5.60;99.90
3001;DHT22;1510;51.072;6.678;2023-01-15T02:28:37;5.70;99.90
3001;DHT22;1510;51.072;6.678;2023-01-15T02:31:09;5.70;99.90
3001;DHT22;1510;51.072;6.678;2023-01-15T02:33:40;5.70;99.90
3001;DHT22;1510;51.072;6.678;2023-01-15T02:36:12;5.70;99.90
3001;DHT22;1510;51.072;6.678;2023-01-15T02:38:44;5.80;99.90
3001;DHT22;1510;51.072;6.678;2023-01-15T02:41:14;5.70;99.90
3001;DHT22;1510;51.072;6.678;2023-01-15T02:43:46;5.70;99.90
3001;DHT22;1510;51.072;6.678;2023-01-15T02:46:16;5.80;99.90
3001;DHT22;1510;51.072;6.678;2023-01-15T02:48:46;5.80;99.90
3001;DHT22;1510;51.072;6.678;2023-01-15T02:51:19;5.80;99.90
3001;DHT22;1510;51.072;6.678;2023-01-15T02:53:48;5.70;99.90
3001;DHT22;1510;51.072;6.678;2023-01-15T02:56:19;5.80;99.90
3001;DHT22;1510;51.072;6.678;2023-01-15T02:58:50;5.80;99.90
3001;DHT22;1510;51.072;6.678;2023-01-15T03:01:21;5.90;99.90
3001;DHT22;1510;51.072;6.678;2023-01-15T03:03:54;5.90;99.90
3001;DHT22;1510;51.072;6.678;2023-01-15T03:06:31;5.90;99.90
3001;DHT22;1510;51.072;6.678;2023-01-15T03:08:59;5.90;99.90
3001;DHT22;1510;51.072;6.678;2023-01-15T03:11:27;5.90;99.90
3001;DHT22;1510;51.072;6.678;2023-01-15T03:14:01;6.00;99.90
3001;DHT22;1510;51.072;6.678;2023-01-15T03:16:33;6.00;99.90
3001;DHT22;1510;51.072;6.678;2023-01-15T03:19:09;6.00;99.90
3001;DHT22;1510;51.072;6.678;2023-01-15T03:21:43;6.00;99.90
3001;DHT22;1510;51.072;6.678;2023-01-15T03:24:14;6.00;99.90
3001;DHT22;1510;51.072;6.678;2023-01-15T03:26:46;6.00;99.90
3001;DHT22;1510;51.072;6.678;2023-01-15T03:29:15;6.10;99.90
3001;DHT22;1510;51.072;6.678;2023-01-15T03:31:42;6.00;99.90
3001;DHT22;1510;51.072;6.678;2023-01-15T03:34:09;6.00;99.90
3001;DHT22;1510;51.072;6.678;2023-01-15T03:36:36;6.10;99.90
3001;DHT22;1510;51.072;6.678;2023-01-15T03:39:04;6.00;99.90
3001;DHT22;1510;51.072;6.678;2023-01-15T03:41:39;6.00;99.90
3001;DHT22;1510;51.072;6.678;2023-01-15T03:44:16;6.00;99.90
3001;DHT22;1510;51.072;6.678;2023-01-15T03:46:59;6.10;99.90
3001;DHT22;1510;51.072;6.678;2023-01-15T03:49:37;6.00;99.90
3001;DHT22;1510;51.072;6.678;2023-01-15T03:52:10;6.00;99.90
3001;DHT22;1510;51.072;6.678;2023-01-15T03:54:43;6.00;99.90
3001;DHT22;1510;51.072;6.678;2023-01-15T03:57:16;5.90;99.90
3001;DHT22;1510;51.072;6.678;2023-01-15T03:59:48;5.90;99.90
3001;DHT22;1510;51.072;6.678;2023-01-15T04:02:17;5.90;99.90
3001;DHT22;1510;51.072;6.678;2023-01-15T04:04:45;5.90;99.90
3001;DHT22;1510;51.072;6.678;2023-01-15T04:07:12;5.90;99.90
3001;DHT22;1510;51.072;6.678;2023-01-15T04:09:40;5.90;99.90
3001;DHT22;1510;51.072;6.678;2023-01-15T04:12:07;5.90;99.90
3001;DHT22;1510;51.072;6.678;2023-01-15T04:14:34;5.90;99.90
3001;DHT22;1510;51.072;6.678;2023-01-15T04:17:02;5.90;99.90
3001;DHT22;1510;51.072;6.678;2023-01-15T04:19:29;5.90;99.90
3001;DHT22;1510;51.072;6.678;2023-01-15T04:21:56;5.90;99.90
3001;DHT22;1510;51.072;6.678;2023-01-15T04:24:22;5.90;99.90
3001;DHT22;1510;51.072;6.678;2023-01-15T04:26:49;5.90;99.90
3001;DHT22;1510;51.072;6.678;2023-01-15T04:29:16;6.00;99.90
3001;DHT22;1510;51.072;6.678;2023-01-15T04:31:43;6.00;99.90
3001;DHT22;1510;51.072;6.678;2023-01-15T04:34:11;6.00;99.90
3001;DHT22;1510;51.072;6.678;2023-01-15T04:36:38;6.00;99.90
3001;DHT22;1510;51.072;6.678;2023-01-15T04:39:04;6.00;99.90
3001;DHT22;1510;51.072;6.678;2023-01-15T04:41:31;6.00;99.90
3001;DHT22;1510;51.072;6.678;2023-01-15T04:44:15;6.10;99.90
3001;DHT22;1510;51.072;6.678;2023-01-15T04:46:43;6.10;99.90
3001;DHT22;1510;51.072;6.678;2023-01-15T04:49:13;6.10;99.90
3001;DHT22;1510;51.072;6.678;2023-01-15T04:51:40;6.10;99.90
3001;DHT22;1510;51.072;6.678;2023-01-15T04:54:08;6.10;99.90
3001;DHT22;1510;51.072;6.678;2023-01-15T04:56:39;6.10;99.90
3001;DHT22;1510;51.072;6.678;2023-01-15T04:59:06;6.10;99.90
3001;DHT22;1510;51.072;6.678;2023-01-15T05:01:33;6.10;99.90
3001;DHT22;1510;51.072;6.678;2023-01-15T05:04:00;6.10;99.90
3001;DHT22;1510;51.072;6.678;2023-01-15T05:06:29;6.10;99.90
3001;DHT22;1510;51.072;6.678;2023-01-15T05:08:56;6.10;99.90
3001;DHT22;1510;51.072;6.678;2023-01-15T05:11:23;6.10;99.90
3001;DHT22;1510;51.072;6.678;2023-01-15T05:13:50;6.10;99.90
3001;DHT22;1510;51.072;6.678;2023-01-15T05:16:19;6.10;99.90
3001;DHT22;1510;51.072;6.678;2023-01-15T05:18:46;6.10;99.90
3001;DHT22;1510;51.072;6.678;2023-01-15T05:21:17;6.10;99.90
3001;DHT22;1510;51.072;6.678;2023-01-15T05:23:54;6.10;99.90
3001;DHT22;1510;51.072;6.678;2023-01-15T05:26:22;6.10;99.90
3001;DHT22;1510;51.072;6.678;2023-01-15T05:28:52;6.10;99.90
3001;DHT22;1510;51.072;6.678;2023-01-15T05:31:19;6.10;99.90
3001;DHT22;1510;51.072;6.678;2023-01-15T05:33:47;6.10;99.90
3001;DHT22;1510;51.072;6.678;2023-01-15T05:36:16;6.00;99.90
3001;DHT22;1510;51.072;6.678;2023-01-15T05:38:43;6.10;99.90
3001;DHT22;1510;51.072;6.678;2023-01-15T05:41:13;6.10;99.90
3001;DHT22;1510;51.072;6.678;2023-01-15T05:44:00;6.20;99.90
3001;DHT22;1510;51.072;6.678;2023-01-15T05:46:27;6.20;99.90
3001;DHT22;1510;51.072;6.678;2023-01-15T05:48:53;6.10;99.90
3001;DHT22;1510;51.072;6.678;2023-01-15T05:51:20;6.20;99.90
3001;DHT22;1510;51.072;6.678;2023-01-15T05:53:47;6.10;99.90
3001;DHT22;1510;51.072;6.678;2023-01-15T05:56:15;6.10;99.90
3001;DHT22;1510;51.072;6.678;2023-01-15T05:58:42;6.20;99.90
3001;DHT22;1510;51.072;6.678;2023-01-15T06:01:10;6.10;99.90
3001;DHT22;1510;51.072;6.678;2023-01-15T06:03:37;6.20;99.90
3001;DHT22;1510;51.072;6.678;2023-01-15T06:06:04;6.30;99.90
3001;DHT22;1510;51.072;6.678;2023-01-15T06:08:30;6.30;99.90
3001;DHT22;1510;51.072;6.678;2023-01-15T06:10:58;6.40;99.90
3001;DHT22;1510;51.072;6.678;2023-01-15T06:13:26;6.50;99.90
3001;DHT22;1510;51.072;6.678;2023-01-15T06:15:53;6.50;99.90
3001;DHT22;1510;51.072;6.678;2023-01-15T06:18:21;6.60;99.90
3001;DHT22;1510;51.072;6.678;2023-01-15T06:20:48;6.60;99.90
3001;DHT22;1510;51.072;6.678;2023-01-15T06:23:16;6.50;99.90
3001;DHT22;1510;51.072;6.678;2023-01-15T06:25:43;6.60;99.90
3001;DHT22;1510;51.072;6.678;2023-01-15T06:28:11;6.50;99.90
3001;DHT22;1510;51.072;6.678;2023-01-15T06:30:39;6.60;99.90
3001;DHT22;1510;51.072;6.678;2023-01-15T06:33:06;6.50;99.90
3001;DHT22;1510;51.072;6.678;2023-01-15T06:35:33;6.60;99.90
3001;DHT22;1510;51.072;6.678;2023-01-15T06:38:00;6.50;99.90
3001;DHT22;1510;51.072;6.678;2023-01-15T06:40:27;6.50;99.90
3001;DHT22;1510;51.072;6.678;2023-01-15T06:42:57;6.50;99.90
3001;DHT22;1510;51.072;6.678;2023-01-15T06:45:42;6.50;99.90
3001;DHT22;1510;51.072;6.678;2023-01-15T06:48:27;6.50;99.90
3001;DHT22;1510;51.072;6.678;2023-01-15T06:50:54;6.60;99.90
3001;DHT22;1510;51.072;6.678;2023-01-15T06:53:20;6.60;99.90
3001;DHT22;1510;51.072;6.678;2023-01-15T06:55:47;6.50;99.90
3001;DHT22;1510;51.072;6.678;2023-01-15T06:58:14;6.60;99.90
3001;DHT22;1510;51.072;6.678;2023-01-15T07:00:42;6.60;99.90
3001;DHT22;1510;51.072;6.678;2023-01-15T07:03:11;6.60;99.90
3001;DHT22;1510;51.072;6.678;2023-01-15T07:05:39;6.50;99.90
3001;DHT22;1510;51.072;6.678;2023-01-15T07:08:06;6.50;99.90
3001;DHT22;1510;51.072;6.678;2023-01-15T07:10:33;6.50;99.90
3001;DHT22;1510;51.072;6.678;2023-01-15T07:13:00;6.50;99.90
3001;DHT22;1510;51.072;6.678;2023-01-15T07:15:27;6.50;99.90
3001;DHT22;1510;51.072;6.678;2023-01-15T07:17:57;6.50;99.90
3001;DHT22;1510;51.072;6.678;2023-01-15T07:20:23;6.50;99.90
3001;DHT22;1510;51.072;6.678;2023-01-15T07:22:50;6.60;99.90
3001;DHT22;1510;51.072;6.678;2023-01-15T07:25:17;6.50;99.90
3001;DHT22;1510;51.072;6.678;2023-01-15T07:27:45;6.60;99.90
3001;DHT22;1510;51.072;6.678;2023-01-15T07:30:12;6.60;99.90
3001;DHT22;1510;51.072;6.678;2023-01-15T07:32:40;6.60;99.90
3001;DHT22;1510;51.072;6.678;2023-01-15T07:35:08;6.60;99.90
3001;DHT22;1510;51.072;6.678;2023-01-15T07:37:35;6.70;99.90
3001;DHT22;1510;51.072;6.678;2023-01-15T07:40:02;6.60;99.90
3001;DHT22;1510;51.072;6.678;2023-01-15T07:42:29;6.60;99.90
3001;DHT22;1510;51.072;6.678;2023-01-15T07:45:13;6.50;99.90
3001;DHT22;1510;51.072;6.678;2023-01-15T07:47:58;6.50;99.90
3001;DHT22;1510;51.072;6.678;2023-01-15T07:50:43;6.50;99.90
3001;DHT22;1510;51.072;6.678;2023-01-15T07:53:10;6.50;99.90
3001;DHT22;1510;51.072;6.678;2023-01-15T07:55:36;6.50;99.90
3001;DHT22;1510;51.072;6.678;2023-01-15T07:58:03;6.60;99.90
3001;DHT22;1510;51.072;6.678;2023-01-15T08:00:30;6.50;99.90
3001;DHT22;1510;51.072;6.678;2023-01-15T08:02:57;6.60;99.90
3001;DHT22;1510;51.072;6.678;2023-01-15T08:05:23;6.70;99.90
3001;DHT22;1510;51.072;6.678;2023-01-15T08:07:51;6.60;99.90
3001;DHT22;1510;51.072;6.678;2023-01-15T08:10:18;6.50;99.90
3001;DHT22;1510;51.072;6.678;2023-01-15T08:12:47;6.50;99.90
3001;DHT22;1510;51.072;6.678;2023-01-15T08:15:36;6.50;99.90
3001;DHT22;1510;51.072;6.678;2023-01-15T08:18:04;6.40;99.90
3001;DHT22;1510;51.072;6.678;2023-01-15T08:20:34;6.40;99.90
3001;DHT22;1510;51.072;6.678;2023-01-15T08:23:05;6.40;99.90
3001;DHT22;1510;51.072;6.678;2023-01-15T08:25:32;6.30;99.90
3001;DHT22;1510;51.072;6.678;2023-01-15T08:28:00;6.30;99.90
3001;DHT22;1510;51.072;6.678;2023-01-15T08:30:27;6.20;99.90
3001;DHT22;1510;51.072;6.678;2023-01-15T08:32:58;6.20;99.90
3001;DHT22;1510;51.072;6.678;2023-01-15T08:35:26;6.10;99.90
3001;DHT22;1510;51.072;6.678;2023-01-15T08:37:53;6.10;99.90
3001;DHT22;1510;51.072;6.678;2023-01-15T08:40:21;6.10;99.90
3001;DHT22;1510;51.072;6.678;2023-01-15T08:42:48;6.00;99.90
3001;DHT22;1510;51.072;6.678;2023-01-15T08:45:15;6.00;99.90
3001;DHT22;1510;51.072;6.678;2023-01-15T08:47:41;6.00;99.90
3001;DHT22;1510;51.072;6.678;2023-01-15T08:50:09;5.90;99.90
3001;DHT22;1510;51.072;6.678;2023-01-15T08:52:37;5.90;99.90
3001;DHT22;1510;51.072;6.678;2023-01-15T08:55:05;5.90;99.90
3001;DHT22;1510;51.072;6.678;2023-01-15T08:57:33;5.80;99.90
3001;DHT22;1510;51.072;6.678;2023-01-15T09:00:00;5.80;99.90
3001;DHT22;1510;51.072;6.678;2023-01-15T09:02:27;5.80;99.90
3001;DHT22;1510;51.072;6.678;2023-01-15T09:04:54;5.70;99.90
3001;DHT22;1510;51.072;6.678;2023-01-15T09:07:20;5.70;99.90
3001;DHT22;1510;51.072;6.678;2023-01-15T09:09:47;5.60;99.90
3001;DHT22;1510;51.072;6.678;2023-01-15T09:12:14;5.60;99.90
3001;DHT22;1510;51.072;6.678;2023-01-15T09:14:43;5.60;99.90
3001;DHT22;1510;51.072;6.678;2023-01-15T09:17:09;5.60;99.90
3001;DHT22;1510;51.072;6.678;2023-01-15T09:19:36;5.60;99.90
3001;DHT22;1510;51.072;6.678;2023-01-15T09:22:03;5.60;99.90
3001;DHT22;1510;51.072;6.678;2023-01-15T09:24:30;5.70;99.90
3001;DHT22;1510;51.072;6.678;2023-01-15T09:26:57;5.80;99.90
3001;DHT22;1510;51.072;6.678;2023-01-15T09:29:24;5.70;99.90
3001;DHT22;1510;51.072;6.678;2023-01-15T09:31:52;5.70;99.90
3001;DHT22;1510;51.072;6.678;2023-01-15T09:34:19;5.90;99.90
3001;DHT22;1510;51.072;6.678;2023-01-15T09:36:46;6.10;99.90
3001;DHT22;1510;51.072;6.678;2023-01-15T09:39:15;6.30;99.90
3001;DHT22;1510;51.072;6.678;2023-01-15T09:41:53;6.40;99.90
3001;DHT22;1510;51.072;6.678;2023-01-15T09:44:38;6.40;99.90
3001;DHT22;1510;51.072;6.678;2023-01-15T09:47:12;6.30;99.90
3001;DHT22;1510;51.072;6.678;2023-01-15T09:49:50;6.40;99.90
3001;DHT22;1510;51.072;6.678;2023-01-15T09:52:28;6.40;99.90
3001;DHT22;1510;51.072;6.678;2023-01-15T09:55:03;6.50;99.90
3001;DHT22;1510;51.072;6.678;2023-01-15T09:57:31;6.60;99.90
3001;DHT22;1510;51.072;6.678;2023-01-15T09:59:59;6.60;99.90
3001;DHT22;1510;51.072;6.678;2023-01-15T10:02:34;6.70;99.90
3001;DHT22;1510;51.072;6.678;2023-01-15T10:05:06;6.90;99.90
3001;DHT22;1510;51.072;6.678;2023-01-15T10:07:40;6.90;99.90
3001;DHT22;1510;51.072;6.678;2023-01-15T10:10:11;7.10;99.90
3001;DHT22;1510;51.072;6.678;2023-01-15T10:12:42;7.20;99.90
3001;DHT22;1510;51.072;6.678;2023-01-15T10:15:24;7.20;99.90
3001;DHT22;1510;51.072;6.678;2023-01-15T10:17:56;7.30;99.90
3001;DHT22;1510;51.072;6.678;2023-01-15T10:20:38;7.30;99.90
3001;DHT22;1510;51.072;6.678;2023-01-15T10:23:17;7.40;99.90
3001;DHT22;1510;51.072;6.678;2023-01-15T10:25:48;7.40;99.90
3001;DHT22;1510;51.072;6.678;2023-01-15T10:28:19;7.40;99.90
3001;DHT22;1510;51.072;6.678;2023-01-15T10:30:52;7.30;99.90
3001;DHT22;1510;51.072;6.678;2023-01-15T10:33:34;7.20;99.90
3001;DHT22;1510;51.072;6.678;2023-01-15T10:36:07;7.40;99.90
3001;DHT22;1510;51.072;6.678;2023-01-15T10:38:44;7.50;99.90
3001;DHT22;1510;51.072;6.678;2023-01-15T10:41:28;7.60;99.90
3001;DHT22;1510;51.072;6.678;2023-01-15T10:44:02;7.70;99.90
3001;DHT22;1510;51.072;6.678;2023-01-15T10:46:34;7.50;99.90
3001;DHT22;1510;51.072;6.678;2023-01-15T10:49:05;7.50;99.90
3001;DHT22;1510;51.072;6.678;2023-01-15T10:51:39;7.70;99.90
3001;DHT22;1510;51.072;6.678;2023-01-15T10:54:15;7.80;99.90
3001;DHT22;1510;51.072;6.678;2023-01-15T10:56:50;7.80;99.90
3001;DHT22;1510;51.072;6.678;2023-01-15T10:59:20;7.90;99.90
3001;DHT22;1510;51.072;6.678;2023-01-15T11:01:51;8.10;99.90
3001;DHT22;1510;51.072;6.678;2023-01-15T11:04:21;7.90;99.90
3001;DHT22;1510;51.072;6.678;2023-01-15T11:06:48;8.00;99.90
3001;DHT22;1510;51.072;6.678;2023-01-15T11:09:19;7.90;99.90
3001;DHT22;1510;51.072;6.678;2023-01-15T11:11:49;8.30;99.90
3001;DHT22;1510;51.072;6.678;2023-01-15T11:14:35;8.30;99.00
3001;DHT22;1510;51.072;6.678;2023-01-15T11:17:22;8.20;98.40
3001;DHT22;1510;51.072;6.678;2023-01-15T11:20:19;8.10;98.70
3001;DHT22;1510;51.072;6.678;2023-01-15T11:22:47;8.10;98.60
3001;DHT22;1510;51.072;6.678;2023-01-15T11:25:27;8.10;98.90
3001;DHT22;1510;51.072;6.678;2023-01-15T11:27:55;8.10;98.90
3001;DHT22;1510;51.072;6.678;2023-01-15T11:30:27;8.20;99.30
3001;DHT22;1510;51.072;6.678;2023-01-15T11:32:55;8.10;99.50
3001;DHT22;1510;51.072;6.678;2023-01-15T11:35:27;8.00;98.50
3001;DHT22;1510;51.072;6.678;2023-01-15T11:38:03;7.90;99.60
3001;DHT22;1510;51.072;6.678;2023-01-15T11:40:30;7.80;99.60
3001;DHT22;1510;51.072;6.678;2023-01-15T11:42:59;7.80;99.50
3001;DHT22;1510;51.072;6.678;2023-01-15T11:45:48;7.90;99.50
3001;DHT22;1510;51.072;6.678;2023-01-15T11:48:43;7.90;99.80
3001;DHT22;1510;51.072;6.678;2023-01-15T11:51:30;8.00;99.30
3001;DHT22;1510;51.072;6.678;2023-01-15T11:54:01;8.00;99.10
3001;DHT22;1510;51.072;6.678;2023-01-15T11:56:33;8.10;98.50
3001;DHT22;1510;51.072;6.678;2023-01-15T11:59:03;8.60;98.20
3001;DHT22;1510;51.072;6.678;2023-01-15T12:01:36;8.50;97.50
3001;DHT22;1510;51.072;6.678;2023-01-15T12:04:06;8.40;97.60
3001;DHT22;1510;51.072;6.678;2023-01-15T12:06:35;8.60;97.60
3001;DHT22;1510;51.072;6.678;2023-01-15T12:09:13;8.60;97.50
3001;DHT22;1510;51.072;6.678;2023-01-15T12:11:51;8.50;96.60
3001;DHT22;1510;51.072;6.678;2023-01-15T12:14:32;9.10;96.40
3001;DHT22;1510;51.072;6.678;2023-01-15T12:17:08;9.40;96.40
3001;DHT22;1510;51.072;6.678;2023-01-15T12:19:44;8.80;95.00
3001;DHT22;1510;51.072;6.678;2023-01-15T12:22:38;8.90;95.40
3001;DHT22;1510;51.072;6.678;2023-01-15T12:25:22;8.40;97.30
3001;DHT22;1510;51.072;6.678;2023-01-15T12:27:58;8.40;97.40
3001;DHT22;1510;51.072;6.678;2023-01-15T12:30:35;8.60;96.90
3001;DHT22;1510;51.072;6.678;2023-01-15T12:33:19;8.70;96.30
3001;DHT22;1510;51.072;6.678;2023-01-15T12:35:52;8.90;95.30
3001;DHT22;1510;51.072;6.678;2023-01-15T12:38:40;9.20;95.10
3001;DHT22;1510;51.072;6.678;2023-01-15T12:41:11;9.50;93.90
3001;DHT22;1510;51.072;6.678;2023-01-15T12:43:43;9.60;93.80
3001;DHT22;1510;51.072;6.678;2023-01-15T12:46:32;9.70;92.90
3001;DHT22;1510;51.072;6.678;2023-01-15T12:49:05;9.50;93.30
3001;DHT22;1510;51.072;6.678;2023-01-15T12:51:43;9.70;93.30
3001;DHT22;1510;51.072;6.678;2023-01-15T12:54:18;9.50;93.50
3001;DHT22;1510;51.072;6.678;2023-01-15T12:56:54;9.20;93.70
3001;DHT22;1510;51.072;6.678;2023-01-15T12:59:26;8.80;94.80
3001;DHT22;1510;51.072;6.678;2023-01-15T13:02:10;8.70;95.10
3001;DHT22;1510;51.072;6.678;2023-01-15T13:04:44;8.60;95.70
3001;DHT22;1510;51.072;6.678;2023-01-15T13:07:17;8.90;94.40
3001;DHT22;1510;51.072;6.678;2023-01-15T13:09:55;9.30;93.40
3001;DHT22;1510;51.072;6.678;2023-01-15T13:12:25;9.70;92.80
3001;DHT22;1510;51.072;6.678;2023-01-15T13:14:56;10.00;92.00
3001;DHT22;1510;51.072;6.678;2023-01-15T13:17:30;10.00;91.00
3001;DHT22;1510;51.072;6.678;2023-01-15T13:20:21;10.10;91.00
3001;DHT22;1510;51.072;6.678;2023-01-15T13:22:56;10.10;90.70
3001;DHT22;1510;51.072;6.678;2023-01-15T13:25:48;10.20;90.10
3001;DHT22;1510;51.072;6.678;2023-01-15T13:28:38;9.90;90.30
3001;DHT22;1510;51.072;6.678;2023-01-15T13:31:20;9.70;91.30
3001;DHT22;1510;51.072;6.678;2023-01-15T13:33:57;9.20;91.10
3001;DHT22;1510;51.072;6.678;2023-01-15T13:36:32;9.00;92.40
3001;DHT22;1510;51.072;6.678;2023-01-15T13:39:04;8.70;92.70
3001;DHT22;1510;51.072;6.678;2023-01-15T13:41:35;8.60;93.40
3001;DHT22;1510;51.072;6.678;2023-01-15T13:44:22;8.50;94.10
3001;DHT22;1510;51.072;6.678;2023-01-15T13:46:59;8.30;94.10
3001;DHT22;1510;51.072;6.678;2023-01-15T13:49:31;8.20;94.40
3001;DHT22;1510;51.072;6.678;2023-01-15T13:51:59;8.10;93.70
3001;DHT22;1510;51.072;6.678;2023-01-15T13:54:29;8.10;94.00
3001;DHT22;1510;51.072;6.678;2023-01-15T13:57:07;8.00;94.30
3001;DHT22;1510;51.072;6.678;2023-01-15T13:59:40;8.00;94.80
3001;DHT22;1510;51.072;6.678;2023-01-15T14:02:25;8.00;95.40
3001;DHT22;1510;51.072;6.678;2023-01-15T14:04:52;7.90;93.80
3001;DHT22;1510;51.072;6.678;2023-01-15T14:07:19;7.90;94.00
3001;DHT22;1510;51.072;6.678;2023-01-15T14:09:48;8.00;95.00
3001;DHT22;1510;51.072;6.678;2023-01-15T14:12:31;7.90;94.60
3001;DHT22;1510;51.072;6.678;2023-01-15T14:15:20;8.00;94.80
3001;DHT22;1510;51.072;6.678;2023-01-15T14:18:14;7.90;94.40
3001;DHT22;1510;51.072;6.678;2023-01-15T14:21:13;8.00;94.70
3001;DHT22;1510;51.072;6.678;2023-01-15T14:24:18;7.90;95.30
3001;DHT22;1510;51.072;6.678;2023-01-15T14:26:53;8.00;94.90
3001;DHT22;1510;51.072;6.678;2023-01-15T14:29:33;8.00;95.20
3001;DHT22;1510;51.072;6.678;2023-01-15T14:32:16;7.80;95.00
3001;DHT22;1510;51.072;6.678;2023-01-15T14:34:53;7.80;95.10
3001;DHT22;1510;51.072;6.678;2023-01-15T14:37:24;7.80;94.50
3001;DHT22;1510;51.072;6.678;2023-01-15T14:39:57;7.70;95.10
3001;DHT22;1510;51.072;6.678;2023-01-15T14:42:28;7.70;95.30
3001;DHT22;1510;51.072;6.678;2023-01-15T14:45:23;7.80;95.60
3001;DHT22;1510;51.072;6.678;2023-01-15T14:47:52;7.70;95.90
3001;DHT22;1510;51.072;6.678;2023-01-15T14:50:39;7.90;94.70
3001;DHT22;1510;51.072;6.678;2023-01-15T14:53:35;7.80;94.90
3001;DHT22;1510;51.072;6.678;2023-01-15T14:56:12;7.80;95.10
3001;DHT22;1510;51.072;6.678;2023-01-15T14:58:52;7.60;95.30
3001;DHT22;1510;51.072;6.678;2023-01-15T15:01:35;7.70;95.20
3001;DHT22;1510;51.072;6.678;2023-01-15T15:04:19;7.80;95.20
3001;DHT22;1510;51.072;6.678;2023-01-15T15:06:51;7.90;95.40
3001;DHT22;1510;51.072;6.678;2023-01-15T15:09:33;7.90;94.60
3001;DHT22;1510;51.072;6.678;2023-01-15T15:12:19;7.90;94.00
3001;DHT22;1510;51.072;6.678;2023-01-15T15:14:57;7.80;93.90
3001;DHT22;1510;51.072;6.678;2023-01-15T15:17:30;7.70;94.70
3001;DHT22;1510;51.072;6.678;2023-01-15T15:20:14;7.50;95.20
3001;DHT22;1510;51.072;6.678;2023-01-15T15:22:43;7.40;95.40
3001;DHT22;1510;51.072;6.678;2023-01-15T15:25:17;7.30;95.60
3001;DHT22;1510;51.072;6.678;2023-01-15T15:27:45;7.20;96.40
3001;DHT22;1510;51.072;6.678;2023-01-15T15:30:12;7.20;96.30
3001;DHT22;1510;51.072;6.678;2023-01-15T15:32:42;7.20;97.00
3001;DHT22;1510;51.072;6.678;2023-01-15T15:35:23;7.10;96.90
3001;DHT22;1510;51.072;6.678;2023-01-15T15:37:50;7.20;96.80
3001;DHT22;1510;51.072;6.678;2023-01-15T15:40:19;7.20;97.00
3001;DHT22;1510;51.072;6.678;2023-01-15T15:42:52;7.20;97.00
3001;DHT22;1510;51.072;6.678;2023-01-15T15:45:50;7.00;97.10
3001;DHT22;1510;51.072;6.678;2023-01-15T15:48:36;6.80;98.10
3001;DHT22;1510;51.072;6.678;2023-01-15T15:51:26;6.70;98.80
3001;DHT22;1510;51.072;6.678;2023-01-15T15:54:14;6.60;99.40
3001;DHT22;1510;51.072;6.678;2023-01-15T15:56:46;6.50;99.70
3001;DHT22;1510;51.072;6.678;2023-01-15T15:59:30;6.50;99.90
3001;DHT22;1510;51.072;6.678;2023-01-15T16:02:15;6.50;99.90
3001;DHT22;1510;51.072;6.678;2023-01-15T16:04:45;6.60;99.90
3001;DHT22;1510;51.072;6.678;2023-01-15T16:07:13;6.70;99.90
3001;DHT22;1510;51.072;6.678;2023-01-15T16:09:45;6.70;99.90
3001;DHT22;1510;51.072;6.678;2023-01-15T16:12:14;6.70;99.90
3001;DHT22;1510;51.072;6.678;2023-01-15T16:14:42;6.90;99.90
3001;DHT22;1510;51.072;6.678;2023-01-15T16:17:10;6.90;99.90
3001;DHT22;1510;51.072;6.678;2023-01-15T16:19:38;6.90;99.60
3001;DHT22;1510;51.072;6.678;2023-01-15T16:22:07;6.90;99.90
3001;DHT22;1510;51.072;6.678;2023-01-15T16:24:34;7.00;99.80
3001;DHT22;1510;51.072;6.678;2023-01-15T16:27:03;7.00;99.80
3001;DHT22;1510;51.072;6.678;2023-01-15T16:29:32;6.90;99.50
3001;DHT22;1510;51.072;6.678;2023-01-15T16:32:00;6.90;99.10
3001;DHT22;1510;51.072;6.678;2023-01-15T16:34:29;6.90;99.90
3001;DHT22;1510;51.072;6.678;2023-01-15T16:36:57;6.90;99.90
3001;DHT22;1510;51.072;6.678;2023-01-15T16:39:28;6.80;99.90
3001;DHT22;1510;51.072;6.678;2023-01-15T16:41:56;6.80;99.90
3001;DHT22;1510;51.072;6.678;2023-01-15T16:44:38;6.80;99.90
3001;DHT22;1510;51.072;6.678;2023-01-15T16:47:19;6.80;99.90
3001;DHT22;1510;51.072;6.678;2023-01-15T16:49:47;6.80;99.90